NORTHEAST SUFFOLK  -  Rip Current Statement Rip Current Statement        NORTHERN NASSAU  -  Rip Current Statement Rip Current Statement        NORTHERN QUEENS  -  Rip Current Statement Rip Current Statement        NORTHWEST SUFFOLK  -  Rip Current Statement Rip Current Statement        SOUTHEAST SUFFOLK  -  Rip Current Statement Rip Current Statement        SOUTHERN NASSAU  -  Rip Current Statement Rip Current Statement        SOUTHERN QUEENS  -  Rip Current Statement Rip Current Statement        SOUTHWEST SUFFOLK  -  Rip Current Statement Rip Current Statement      

Active alerts

Northern Queens
  Details for Northern Queens Rip Current Statement
Southern Queens
  Details for Southern Queens Rip Current Statement
Northern Nassau
  Details for Northern Nassau Rip Current Statement
Southern Nassau
  Details for Southern Nassau Rip Current Statement
Northwest Suffolk
  Details for Northwest Suffolk Rip Current Statement
Southwest Suffolk
  Details for Southwest Suffolk Rip Current Statement
Northeast Suffolk
  Details for Northeast Suffolk Rip Current Statement
Southeast Suffolk
  Details for Southeast Suffolk Rip Current Statement


WXM80 ListenWXM80 Stop

You find our weather info also at:

UK Metoffice

WeatherCloud

Weather Underground

Northeastern Weather Network

AWEKAS

Citizen Weather Observer Program (CWOP)

HAMweather, WeatherForYou, PWS Weather


Weather Underground History page Text

Daily Summary for December 20, 2017 Units:  English    Metric   Both
« Previous Day
Next Day »
Daily Weekly Monthly Yearly Custom
  High: Low: Average:
Temperature: 51.2 °F 35.3 °F 43.2 °F
Dew Point: 39.8 °F 22.0 °F 28.2 °F
Humidity: 68 % 47 % 56 %
Wind Speed: 12.0 mph 0.0 mph 5.4 mph
Wind Gust: 21.0 mph - -
Wind:- - WNW
Pressure: 30.03 in 29.68 in -
Precipitation: 0.00 in    
Historical Graphs
 
 
Tabular Data for December 20, 2017
Time Temperature Dew Point Pressure Wind Wind Speed Wind Gust Humidity Rainfall Rate (Hourly)
00:00 49.7 °F 39.2 °F 29.69 in WSW 5.6 mph 9.0 mph 67 % 0.00 in
00:04 49.6 °F 39.1 °F 29.69 in WSW 3.1 mph 6.9 mph 67 % 0.00 in
00:10 49.6 °F 39.1 °F 29.69 in SW 7.1 mph 10.0 mph 67 % 0.00 in
00:11 49.7 °F 38.8 °F 29.69 in WSW 4.4 mph 8.1 mph 66 % 0.00 in
00:15 49.7 °F 38.8 °F 29.69 in SW 1.5 mph 5.8 mph 66 % 0.00 in
00:20 49.7 °F 38.8 °F 29.68 in SW 2.2 mph 9.2 mph 66 % 0.00 in
00:21 49.7 °F 38.8 °F 29.68 in WSW 4.3 mph 6.9 mph 66 % 0.00 in
00:26 49.7 °F 38.8 °F 29.69 in WSW 3.7 mph 5.8 mph 66 % 0.00 in
00:28 49.8 °F 38.9 °F 29.68 in WSW 2.3 mph 6.0 mph 66 % 0.00 in
00:29 49.8 °F 38.9 °F 29.68 in WSW 2.8 mph 6.0 mph 66 % 0.00 in
00:34 49.7 °F 38.8 °F 29.68 in WSW 1.4 mph 7.0 mph 66 % 0.00 in
00:35 49.7 °F 38.8 °F 29.68 in SSW 4.9 mph 6.9 mph 66 % 0.00 in
00:36 49.7 °F 38.8 °F 29.68 in SSW 2.3 mph 9.2 mph 66 % 0.00 in
00:41 49.7 °F 38.8 °F 29.69 in South 4.1 mph 7.0 mph 66 % 0.00 in
00:44 49.6 °F 38.7 °F 29.69 in SW 3.2 mph 7.0 mph 66 % 0.00 in
00:49 49.6 °F 38.7 °F 29.69 in SSW 2.3 mph 5.8 mph 66 % 0.00 in
00:53 49.5 °F 38.6 °F 29.68 in SW 3.0 mph 4.6 mph 66 % 0.00 in
00:58 49.5 °F 38.6 °F 29.68 in SW 4.7 mph 7.0 mph 66 % 0.00 in
01:00 49.5 °F 38.6 °F 29.68 in South 4.2 mph 10.4 mph 66 % 0.00 in
01:02 49.5 °F 38.6 °F 29.69 in SSW 3.2 mph 5.8 mph 66 % 0.00 in
01:07 49.5 °F 38.6 °F 29.69 in West 3.5 mph 10.4 mph 66 % 0.00 in
01:10 49.6 °F 38.7 °F 29.68 in WSW 8.1 mph 12.7 mph 66 % 0.00 in
01:16 49.8 °F 38.5 °F 29.69 in South 4.6 mph 9.2 mph 65 % 0.00 in
01:17 49.8 °F 38.5 °F 29.69 in SSW 3.0 mph 10.4 mph 65 % 0.00 in
01:22 50.0 °F 38.7 °F 29.69 in WSW 5.6 mph 12.7 mph 65 % 0.00 in
01:23 50.0 °F 38.7 °F 29.69 in SW 3.9 mph 11.0 mph 65 % 0.00 in
01:28 50.1 °F 38.8 °F 29.69 in South 2.5 mph 6.0 mph 65 % 0.00 in
01:33 50.3 °F 38.6 °F 29.69 in WSW 4.1 mph 7.0 mph 64 % 0.00 in
01:35 50.3 °F 38.6 °F 29.69 in West 3.8 mph 6.9 mph 64 % 0.00 in
01:40 50.4 °F 38.7 °F 29.69 in WSW 8.2 mph 11.5 mph 64 % 0.00 in
01:41 50.4 °F 38.7 °F 29.70 in WSW 7.0 mph 7.0 mph 64 % 0.00 in
01:46 50.6 °F 38.9 °F 29.70 in WSW 8.0 mph 15.0 mph 64 % 0.00 in
01:47 50.6 °F 38.5 °F 29.70 in West 6.2 mph 9.2 mph 63 % 0.00 in
01:52 50.8 °F 39.1 °F 29.70 in WSW 2.5 mph 11.5 mph 64 % 0.00 in
01:55 50.9 °F 39.1 °F 29.71 in WSW 4.6 mph 16.1 mph 64 % 0.00 in
01:57 51.0 °F 38.8 °F 29.71 in WSW 7.1 mph 15.0 mph 63 % 0.00 in
02:02 51.1 °F 38.9 °F 29.71 in West 6.6 mph 13.8 mph 63 % 0.00 in
02:05 51.2 °F 39.0 °F 29.71 in WNW 4.3 mph 11.5 mph 63 % 0.00 in
02:10 51.2 °F 39.0 °F 29.71 in WSW 6.7 mph 10.4 mph 63 % 0.00 in
02:11 51.2 °F 39.0 °F 29.71 in SW 5.6 mph 10.4 mph 63 % 0.00 in
02:14 51.2 °F 39.0 °F 29.72 in WNW 2.6 mph 10.4 mph 63 % 0.00 in
02:16 51.2 °F 39.0 °F 29.72 in West 4.9 mph 12.7 mph 63 % 0.00 in
02:19 51.2 °F 39.8 °F 29.72 in West 8.3 mph 15.0 mph 65 % 0.00 in
02:25 51.1 °F 39.3 °F 29.72 in NW 9.1 mph 17.3 mph 64 % 0.00 in
02:30 51.0 °F 39.2 °F 29.72 in WNW 3.0 mph 8.1 mph 64 % 0.00 in
02:31 51.0 °F 39.2 °F 29.73 in West 3.9 mph 9.2 mph 64 % 0.00 in
02:36 50.9 °F 39.1 °F 29.73 in WNW 2.1 mph 5.8 mph 64 % 0.00 in
02:42 50.8 °F 39.5 °F 29.73 in WNW 4.3 mph 6.0 mph 65 % 0.00 in
02:47 50.6 °F 38.9 °F 29.73 in WNW 2.9 mph 12.7 mph 64 % 0.00 in
02:51 50.5 °F 39.2 °F 29.74 in WNW 4.6 mph 10.4 mph 65 % 0.00 in
02:57 50.3 °F 39.0 °F 29.74 in WNW 4.5 mph 8.1 mph 65 % 0.00 in
02:59 50.2 °F 38.9 °F 29.74 in WSW 2.1 mph 5.8 mph 65 % 0.00 in
03:00 50.1 °F 38.8 °F 29.74 in WNW 6.9 mph 12.0 mph 65 % 0.00 in
03:05 50.0 °F 38.7 °F 29.74 in West 1.7 mph 6.9 mph 65 % 0.00 in
03:06 49.9 °F 38.6 °F 29.74 in West 1.4 mph 4.6 mph 65 % 0.00 in
03:11 49.7 °F 38.8 °F 29.74 in West 5.6 mph 10.4 mph 66 % 0.00 in
03:12 49.6 °F 38.7 °F 29.74 in WNW 4.0 mph 9.2 mph 66 % 0.00 in
03:16 49.4 °F 38.5 °F 29.74 in NNW 4.5 mph 8.1 mph 66 % 0.00 in
03:21 49.2 °F 38.7 °F 29.74 in NW 3.3 mph 6.0 mph 67 % 0.00 in
03:25 49.0 °F 38.5 °F 29.74 in WSW 1.6 mph 3.5 mph 67 % 0.00 in
03:26 49.0 °F 38.9 °F 29.74 in West 1.3 mph 5.0 mph 68 % 0.00 in
03:31 48.8 °F 38.7 °F 29.74 in Calm   3.5 mph 68 % 0.00 in
03:36 48.5 °F 38.4 °F 29.74 in WNW 2.0 mph 11.0 mph 68 % 0.00 in
03:41 48.1 °F 37.3 °F 29.75 in WNW 1.7 mph 5.8 mph 66 % 0.00 in
03:47 47.8 °F 36.2 °F 29.75 in WNW 4.0 mph 6.9 mph 64 % 0.00 in
03:48 47.8 °F 36.2 °F 29.75 in West 3.0 mph 9.0 mph 64 % 0.00 in
03:50 47.7 °F 36.1 °F 29.75 in NW 0.7 mph 9.2 mph 64 % 0.00 in
03:54 47.6 °F 35.2 °F 29.75 in WSW 6.7 mph 15.0 mph 62 % 0.00 in
03:55 47.5 °F 35.1 °F 29.75 in WNW 2.1 mph 15.0 mph 62 % 0.00 in
04:00 47.4 °F 33.8 °F 29.75 in WNW 3.9 mph 8.1 mph 59 % 0.00 in
04:01 47.4 °F 33.8 °F 29.75 in NW 4.1 mph 9.2 mph 59 % 0.00 in
04:06 47.4 °F 32.9 °F 29.75 in West 6.0 mph 15.0 mph 57 % 0.00 in
04:09 47.5 °F 32.1 °F 29.76 in NW 6.0 mph 16.0 mph 55 % 0.00 in
04:14 47.6 °F 31.8 °F 29.76 in West 8.7 mph 17.3 mph 54 % 0.00 in
04:16 47.7 °F 31.9 °F 29.76 in WNW 4.2 mph 11.5 mph 54 % 0.00 in
04:21 47.8 °F 32.4 °F 29.76 in WSW 5.9 mph 11.5 mph 55 % 0.00 in
04:26 47.8 °F 31.9 °F 29.76 in West 4.1 mph 11.5 mph 54 % 0.00 in
04:29 47.8 °F 32.4 °F 29.76 in WSW 2.3 mph 6.9 mph 55 % 0.00 in
04:34 47.7 °F 32.8 °F 29.76 in NW 5.9 mph 9.2 mph 56 % 0.00 in
04:39 47.6 °F 32.2 °F 29.76 in SW 2.5 mph 6.9 mph 55 % 0.00 in
04:44 47.6 °F 32.2 °F 29.76 in WNW 8.3 mph 11.5 mph 55 % 0.00 in
04:45 47.6 °F 32.2 °F 29.77 in WSW 5.0 mph 13.8 mph 55 % 0.00 in
04:49 47.6 °F 32.2 °F 29.77 in WNW 4.2 mph 10.4 mph 55 % 0.00 in
04:54 47.5 °F 32.1 °F 29.77 in NW 7.3 mph 16.1 mph 55 % 0.00 in
04:56 47.5 °F 32.1 °F 29.77 in NNW 4.9 mph 8.1 mph 55 % 0.00 in
05:01 47.4 °F 31.6 °F 29.77 in WNW 4.7 mph 11.5 mph 54 % 0.00 in
05:02 47.3 °F 31.5 °F 29.77 in WNW 1.3 mph 5.8 mph 54 % 0.00 in
05:08 47.2 °F 31.8 °F 29.77 in NW 5.9 mph 10.4 mph 55 % 0.00 in
05:12 47.1 °F 31.7 °F 29.77 in WNW 5.6 mph 11.0 mph 55 % 0.00 in
05:14 47.1 °F 31.7 °F 29.77 in West 5.4 mph 8.0 mph 55 % 0.00 in
05:19 47.0 °F 32.1 °F 29.77 in WNW 2.1 mph 6.9 mph 56 % 0.00 in
05:22 46.9 °F 32.0 °F 29.78 in WNW 4.2 mph 7.0 mph 56 % 0.00 in
05:26 46.8 °F 32.8 °F 29.78 in WNW 2.2 mph 3.5 mph 58 % 0.00 in
05:28 46.7 °F 33.1 °F 29.78 in NW 7.7 mph 17.3 mph 59 % 0.00 in
05:32 46.6 °F 33.4 °F 29.78 in WNW 6.7 mph 12.7 mph 60 % 0.00 in
05:34 46.5 °F 32.9 °F 29.78 in NW 3.0 mph 6.9 mph 59 % 0.00 in
05:39 46.4 °F 32.4 °F 29.79 in NW 4.7 mph 12.7 mph 58 % 0.00 in
05:44 46.3 °F 32.3 °F 29.79 in NW 9.4 mph 15.0 mph 58 % 0.00 in
05:46 46.2 °F 31.8 °F 29.79 in WNW 6.0 mph 18.4 mph 57 % 0.00 in
05:51 46.1 °F 30.8 °F 29.80 in NW 6.4 mph 11.5 mph 55 % 0.00 in
05:53 46.1 °F 30.8 °F 29.80 in WNW 5.9 mph 12.7 mph 55 % 0.00 in
05:54 46.1 °F 31.3 °F 29.80 in NW 4.1 mph 9.2 mph 56 % 0.00 in
06:00 45.9 °F 32.8 °F 29.80 in NNW 3.7 mph 8.1 mph 60 % 0.00 in
06:03 45.8 °F 33.1 °F 29.80 in NW 6.4 mph 12.7 mph 61 % 0.00 in
06:08 45.6 °F 33.3 °F 29.81 in NW 4.1 mph 10.4 mph 62 % 0.00 in
06:13 45.4 °F 32.7 °F 29.81 in NW 8.1 mph 12.7 mph 61 % 0.00 in
06:18 45.1 °F 32.8 °F 29.81 in NW 5.0 mph 9.2 mph 62 % 0.00 in
06:20 45.0 °F 32.8 °F 29.81 in NW 5.0 mph 8.1 mph 62 % 0.00 in
06:25 44.9 °F 32.3 °F 29.81 in WNW 5.1 mph 11.5 mph 61 % 0.00 in
06:26 44.8 °F 32.2 °F 29.82 in NW 6.0 mph 13.0 mph 61 % 0.00 in
06:31 44.7 °F 32.1 °F 29.82 in NW 3.0 mph 13.0 mph 61 % 0.00 in
06:36 44.5 °F 32.3 °F 29.82 in WNW 5.5 mph 11.5 mph 62 % 0.00 in
06:41 44.4 °F 32.2 °F 29.82 in WNW 6.3 mph 9.2 mph 62 % 0.00 in
06:43 44.3 °F 32.1 °F 29.83 in NW 3.6 mph 11.5 mph 62 % 0.00 in
06:46 44.2 °F 32.0 °F 29.83 in NW 6.0 mph 12.0 mph 62 % 0.00 in
06:49 44.1 °F 31.5 °F 29.83 in NW 3.5 mph 9.2 mph 61 % 0.00 in
06:54 44.0 °F 31.4 °F 29.83 in West 2.1 mph 6.9 mph 61 % 0.00 in
06:55 44.0 °F 31.4 °F 29.83 in NNW 6.1 mph 8.1 mph 61 % 0.00 in
06:59 43.8 °F 30.4 °F 29.84 in NW 4.9 mph 11.5 mph 59 % 0.00 in
07:03 43.7 °F 29.5 °F 29.84 in West 4.0 mph 13.8 mph 57 % 0.00 in
07:08 43.6 °F 28.5 °F 29.84 in WNW 7.6 mph 13.8 mph 55 % 0.00 in
07:13 43.4 °F 27.8 °F 29.84 in NW 8.6 mph 16.0 mph 54 % 0.00 in
07:14 43.4 °F 28.3 °F 29.84 in West 6.3 mph 12.0 mph 55 % 0.00 in
07:16 43.4 °F 27.8 °F 29.84 in WNW 8.6 mph 10.4 mph 54 % 0.00 in
07:21 43.3 °F 27.8 °F 29.84 in NW 6.4 mph 11.5 mph 54 % 0.00 in
07:24 43.3 °F 28.2 °F 29.85 in WSW 6.8 mph 11.5 mph 55 % 0.00 in
07:29 43.2 °F 27.7 °F 29.85 in WNW 2.2 mph 11.5 mph 54 % 0.00 in
07:34 43.1 °F 28.0 °F 29.85 in WNW 6.3 mph 11.0 mph 55 % 0.00 in
07:35 43.1 °F 27.6 °F 29.85 in WNW 6.7 mph 11.5 mph 54 % 0.00 in
07:40 43.0 °F 27.5 °F 29.86 in WNW 5.0 mph 7.0 mph 54 % 0.00 in
07:41 43.0 °F 27.5 °F 29.86 in WNW 5.7 mph 8.0 mph 54 % 0.00 in
07:45 42.9 °F 27.4 °F 29.86 in WNW 4.1 mph 9.2 mph 54 % 0.00 in
07:50 42.8 °F 27.3 °F 29.86 in WSW 4.3 mph 9.2 mph 54 % 0.00 in
07:53 42.7 °F 26.7 °F 29.86 in West 4.7 mph 12.7 mph 53 % 0.00 in
07:57 42.7 °F 26.3 °F 29.85 in WSW 5.9 mph 13.0 mph 52 % 0.00 in
08:00 42.6 °F 26.2 °F 29.86 in NW 8.0 mph 17.3 mph 52 % 0.00 in
08:05 42.5 °F 25.6 °F 29.86 in SW 8.2 mph 12.7 mph 51 % 0.00 in
08:06 42.6 °F 25.7 °F 29.86 in West 6.8 mph 15.0 mph 51 % 0.00 in
08:08 42.5 °F 25.6 °F 29.86 in WSW 4.9 mph 10.4 mph 51 % 0.00 in
08:13 42.5 °F 26.1 °F 29.86 in WSW 8.3 mph 15.0 mph 52 % 0.00 in
08:14 42.5 °F 26.1 °F 29.86 in WNW 7.8 mph 13.8 mph 52 % 0.00 in
08:17 42.5 °F 26.1 °F 29.86 in WNW 8.1 mph 11.5 mph 52 % 0.00 in
08:20 42.5 °F 25.6 °F 29.86 in West 5.9 mph 16.1 mph 51 % 0.00 in
08:25 42.5 °F 25.6 °F 29.86 in WSW 3.5 mph 11.5 mph 51 % 0.00 in
08:26 42.5 °F 25.1 °F 29.86 in WNW 5.5 mph 15.0 mph 50 % 0.00 in
08:31 42.5 °F 25.1 °F 29.87 in SW 8.3 mph 18.0 mph 50 % 0.00 in
08:32 42.5 °F 24.7 °F 29.86 in West 8.0 mph 18.4 mph 49 % 0.00 in
08:37 42.6 °F 25.2 °F 29.87 in West 1.8 mph 11.5 mph 50 % 0.00 in
08:40 42.6 °F 25.2 °F 29.87 in West 5.2 mph 11.5 mph 50 % 0.00 in
08:45 42.6 °F 25.2 °F 29.88 in West 3.6 mph 4.6 mph 50 % 0.00 in
08:50 42.7 °F 25.3 °F 29.88 in West 7.2 mph 11.5 mph 50 % 0.00 in
08:55 42.8 °F 25.4 °F 29.89 in WSW 2.7 mph 9.2 mph 50 % 0.00 in
08:57 42.8 °F 25.4 °F 29.89 in WSW 7.0 mph 13.8 mph 50 % 0.00 in
09:02 42.9 °F 25.0 °F 29.88 in West 8.7 mph 13.8 mph 49 % 0.00 in
09:03 42.9 °F 25.0 °F 29.89 in West 5.7 mph 13.8 mph 49 % 0.00 in
09:05 43.0 °F 25.1 °F 29.89 in WNW 5.2 mph 15.0 mph 49 % 0.00 in
09:10 43.0 °F 24.6 °F 29.89 in WNW 6.4 mph 9.2 mph 48 % 0.00 in
09:11 43.0 °F 24.6 °F 29.89 in WSW 10.2 mph 18.0 mph 48 % 0.00 in
09:16 43.1 °F 24.7 °F 29.88 in West 6.7 mph 10.4 mph 48 % 0.00 in
09:17 43.1 °F 25.2 °F 29.88 in West 8.1 mph 16.0 mph 49 % 0.00 in
09:18 43.1 °F 24.7 °F 29.89 in WSW 6.2 mph 16.1 mph 48 % 0.00 in
09:22 43.1 °F 25.2 °F 29.89 in West 8.9 mph 13.8 mph 49 % 0.00 in
09:27 43.1 °F 24.7 °F 29.89 in WNW 7.6 mph 12.7 mph 48 % 0.00 in
09:29 43.1 °F 24.7 °F 29.89 in SW 9.9 mph 14.0 mph 48 % 0.00 in
09:34 43.3 °F 25.4 °F 29.89 in West 5.6 mph 10.4 mph 49 % 0.00 in
09:35 43.3 °F 25.4 °F 29.89 in WNW 5.9 mph 10.4 mph 49 % 0.00 in
09:40 43.4 °F 25.5 °F 29.90 in NW 8.6 mph 12.7 mph 49 % 0.00 in
09:41 43.4 °F 25.5 °F 29.90 in West 7.0 mph 14.0 mph 49 % 0.00 in
09:46 43.5 °F 25.1 °F 29.90 in SW 9.2 mph 18.4 mph 48 % 0.00 in
09:49 43.6 °F 25.2 °F 29.90 in WNW 6.8 mph 11.5 mph 48 % 0.00 in
09:54 43.7 °F 25.3 °F 29.90 in West 9.1 mph 11.5 mph 48 % 0.00 in
09:58 43.8 °F 25.4 °F 29.90 in West 6.6 mph 8.1 mph 48 % 0.00 in
10:03 43.8 °F 25.4 °F 29.91 in West 7.1 mph 12.7 mph 48 % 0.00 in
10:05 43.9 °F 25.5 °F 29.91 in WSW 3.7 mph 6.9 mph 48 % 0.00 in
10:08 43.9 °F 26.0 °F 29.90 in West 6.0 mph 11.5 mph 49 % 0.00 in
10:13 44.0 °F 25.5 °F 29.90 in West 6.0 mph 11.5 mph 48 % 0.00 in
10:16 44.0 °F 26.0 °F 29.90 in WNW 2.3 mph 9.2 mph 49 % 0.00 in
10:17 44.0 °F 26.0 °F 29.90 in WNW 3.1 mph 6.0 mph 49 % 0.00 in
10:22 44.1 °F 26.1 °F 29.90 in WNW 4.0 mph 8.1 mph 49 % 0.00 in
10:27 44.1 °F 26.1 °F 29.90 in WSW 6.6 mph 10.4 mph 49 % 0.00 in
10:29 44.2 °F 26.2 °F 29.91 in West 4.2 mph 9.2 mph 49 % 0.00 in
10:34 44.2 °F 26.2 °F 29.90 in SW 3.3 mph 8.1 mph 49 % 0.00 in
10:36 44.2 °F 26.2 °F 29.90 in West 8.0 mph 12.0 mph 49 % 0.00 in
10:42 44.3 °F 26.8 °F 29.90 in WSW 6.5 mph 14.0 mph 50 % 0.00 in
10:47 44.3 °F 26.3 °F 29.91 in WNW 5.1 mph 12.7 mph 49 % 0.00 in
10:48 44.3 °F 26.3 °F 29.90 in West 5.2 mph 12.7 mph 49 % 0.00 in
10:53 44.3 °F 26.3 °F 29.90 in WSW 8.0 mph 16.1 mph 49 % 0.00 in
10:54 44.3 °F 26.3 °F 29.90 in WNW 7.1 mph 11.5 mph 49 % 0.00 in
10:58 44.3 °F 26.3 °F 29.90 in WSW 5.6 mph 15.0 mph 49 % 0.00 in
11:03 44.3 °F 26.3 °F 29.90 in SW 5.8 mph 10.4 mph 49 % 0.00 in
11:05 44.4 °F 26.4 °F 29.90 in SW 5.0 mph 10.4 mph 49 % 0.00 in
11:08 44.4 °F 26.4 °F 29.90 in WNW 7.3 mph 15.0 mph 49 % 0.00 in
11:13 44.4 °F 26.4 °F 29.89 in West 6.5 mph 14.0 mph 49 % 0.00 in
11:17 44.5 °F 27.0 °F 29.89 in West 7.4 mph 12.7 mph 50 % 0.00 in
11:22 44.5 °F 26.5 °F 29.88 in WNW 8.1 mph 17.0 mph 49 % 0.00 in
11:24 44.5 °F 26.0 °F 29.88 in West 9.5 mph 17.3 mph 48 % 0.00 in
11:29 44.6 °F 27.6 °F 29.88 in NW 5.7 mph 16.1 mph 51 % 0.00 in
11:30 44.6 °F 28.0 °F 29.88 in NW 5.4 mph 16.1 mph 52 % 0.00 in
11:35 44.6 °F 27.6 °F 29.88 in NNW 7.5 mph 16.1 mph 51 % 0.00 in
11:37 44.6 °F 27.6 °F 29.88 in NW 9.0 mph 12.7 mph 51 % 0.00 in
11:42 44.5 °F 27.5 °F 29.88 in WNW 7.4 mph 16.1 mph 51 % 0.00 in
11:44 44.4 °F 27.4 °F 29.88 in West 4.5 mph 11.5 mph 51 % 0.00 in
11:49 44.3 °F 27.3 °F 29.88 in WNW 4.0 mph 11.5 mph 51 % 0.00 in
11:50 44.3 °F 26.8 °F 29.88 in West 8.6 mph 20.7 mph 50 % 0.00 in
11:55 44.1 °F 26.1 °F 29.88 in NW 8.3 mph 18.4 mph 49 % 0.00 in
11:56 44.2 °F 26.2 °F 29.87 in WNW 9.0 mph 18.0 mph 49 % 0.00 in
11:59 44.0 °F 25.5 °F 29.88 in WSW 8.3 mph 12.7 mph 48 % 0.00 in
12:04 43.9 °F 26.0 °F 29.88 in WNW 8.8 mph 12.0 mph 49 % 0.00 in
12:08 43.8 °F 25.9 °F 29.88 in West 5.0 mph 12.7 mph 49 % 0.00 in
12:09 43.8 °F 25.9 °F 29.88 in WNW 5.6 mph 12.7 mph 49 % 0.00 in
12:14 43.6 °F 25.7 °F 29.87 in WSW 5.1 mph 13.8 mph 49 % 0.00 in
12:20 43.4 °F 25.5 °F 29.87 in WNW 6.9 mph 13.8 mph 49 % 0.00 in
12:25 43.4 °F 25.0 °F 29.87 in NW 9.1 mph 16.1 mph 48 % 0.00 in
12:30 43.4 °F 25.0 °F 29.87 in WNW 7.3 mph 15.0 mph 48 % 0.00 in
12:31 43.4 °F 25.5 °F 29.87 in WNW 6.4 mph 15.0 mph 49 % 0.00 in
12:33 43.3 °F 25.4 °F 29.87 in NW 4.0 mph 8.1 mph 49 % 0.00 in
12:37 43.3 °F 25.4 °F 29.87 in NW 8.2 mph 12.7 mph 49 % 0.00 in
12:42 43.3 °F 25.4 °F 29.87 in WNW 9.4 mph 15.0 mph 49 % 0.00 in
12:44 43.2 °F 25.3 °F 29.87 in West 7.7 mph 17.3 mph 49 % 0.00 in
12:49 43.1 °F 24.7 °F 29.87 in WNW 5.6 mph 11.5 mph 48 % 0.00 in
12:52 43.1 °F 25.2 °F 29.87 in WNW 10.7 mph 13.8 mph 49 % 0.00 in
12:57 43.1 °F 25.2 °F 29.87 in NW 4.3 mph 11.5 mph 49 % 0.00 in
13:01 43.2 °F 25.8 °F 29.87 in NNW 7.5 mph 13.0 mph 50 % 0.00 in
13:06 43.3 °F 24.9 °F 29.87 in WNW 8.9 mph 17.3 mph 48 % 0.00 in
13:09 43.3 °F 25.4 °F 29.87 in WNW 8.5 mph 13.8 mph 49 % 0.00 in
13:14 43.3 °F 24.9 °F 29.87 in West 7.9 mph 15.0 mph 48 % 0.00 in
13:16 43.4 °F 25.0 °F 29.87 in WNW 8.0 mph 15.0 mph 48 % 0.00 in
13:21 43.4 °F 25.0 °F 29.87 in WNW 5.7 mph 10.4 mph 48 % 0.00 in
13:26 43.3 °F 25.4 °F 29.87 in West 8.3 mph 21.0 mph 49 % 0.00 in
13:27 43.3 °F 24.9 °F 29.88 in NNW 10.5 mph 20.7 mph 48 % 0.00 in
13:28 43.3 °F 24.9 °F 29.87 in WNW 4.7 mph 11.5 mph 48 % 0.00 in
13:32 43.2 °F 25.3 °F 29.87 in NW 4.9 mph 10.4 mph 49 % 0.00 in
13:37 43.1 °F 24.7 °F 29.87 in WNW 6.7 mph 9.2 mph 48 % 0.00 in
13:43 43.0 °F 24.6 °F 29.87 in WNW 5.9 mph 11.5 mph 48 % 0.00 in
13:44 43.0 °F 24.1 °F 29.87 in West 6.2 mph 12.7 mph 47 % 0.00 in
13:49 42.9 °F 24.0 °F 29.87 in WNW 6.8 mph 15.0 mph 47 % 0.00 in
13:50 42.8 °F 23.9 °F 29.87 in West 5.1 mph 9.2 mph 47 % 0.00 in
13:56 42.8 °F 23.9 °F 29.87 in NW 9.4 mph 11.5 mph 47 % 0.00 in
14:01 42.7 °F 24.4 °F 29.87 in West 5.5 mph 13.8 mph 48 % 0.00 in
14:06 42.6 °F 24.8 °F 29.87 in WNW 5.3 mph 11.5 mph 49 % 0.00 in
14:07 42.6 °F 24.3 °F 29.87 in NW 5.8 mph 15.0 mph 48 % 0.00 in
14:12 42.5 °F 24.2 °F 29.88 in West 7.8 mph 12.7 mph 48 % 0.00 in
14:17 42.4 °F 24.6 °F 29.88 in NW 7.9 mph 14.0 mph 49 % 0.00 in
14:18 42.4 °F 24.1 °F 29.88 in NW 5.6 mph 13.8 mph 48 % 0.00 in
14:23 42.3 °F 24.0 °F 29.88 in WNW 5.3 mph 12.7 mph 48 % 0.00 in
14:24 42.3 °F 24.0 °F 29.88 in West 4.5 mph 9.2 mph 48 % 0.00 in
14:25 42.3 °F 24.0 °F 29.88 in NW 3.0 mph 9.2 mph 48 % 0.00 in
14:30 42.2 °F 24.4 °F 29.88 in West 3.7 mph 10.4 mph 49 % 0.00 in
14:35 42.1 °F 25.3 °F 29.88 in NW 5.7 mph 13.0 mph 51 % 0.00 in
14:41 42.0 °F 24.7 °F 29.88 in WNW 6.0 mph 9.0 mph 50 % 0.00 in
14:46 41.9 °F 24.6 °F 29.88 in WNW 2.0 mph 12.0 mph 50 % 0.00 in
14:51 41.9 °F 24.1 °F 29.88 in West 7.0 mph 8.1 mph 49 % 0.00 in
14:52 41.8 °F 24.0 °F 29.88 in NW 4.6 mph 13.8 mph 49 % 0.00 in
14:57 41.9 °F 24.1 °F 29.88 in West 5.4 mph 9.2 mph 49 % 0.00 in
15:02 41.9 °F 24.1 °F 29.89 in WNW 3.9 mph 6.9 mph 49 % 0.00 in
15:04 41.9 °F 24.1 °F 29.89 in WNW 0.5 mph 6.9 mph 49 % 0.00 in
15:08 42.0 °F 24.2 °F 29.89 in WSW 4.7 mph 8.1 mph 49 % 0.00 in
15:13 42.1 °F 23.8 °F 29.89 in WNW 3.4 mph 8.1 mph 48 % 0.00 in
15:18 42.2 °F 23.9 °F 29.89 in West 1.8 mph 8.1 mph 48 % 0.00 in
15:23 42.2 °F 23.9 °F 29.89 in WSW 5.3 mph 9.2 mph 48 % 0.00 in
15:24 42.3 °F 24.0 °F 29.89 in West 4.2 mph 8.1 mph 48 % 0.00 in
15:28 42.3 °F 24.0 °F 29.89 in West 6.8 mph 12.7 mph 48 % 0.00 in
15:32 42.3 °F 24.0 °F 29.89 in WSW 4.8 mph 11.5 mph 48 % 0.00 in
15:34 42.3 °F 24.0 °F 29.90 in WNW 2.6 mph 10.0 mph 48 % 0.00 in
15:39 42.3 °F 25.0 °F 29.90 in WNW 3.9 mph 12.7 mph 50 % 0.00 in
15:49 42.3 °F 25.0 °F 29.90 in NW 12.0 mph 13.8 mph 50 % 0.00 in
15:50 42.3 °F 25.0 °F 29.90 in NW 9.2 mph 13.8 mph 50 % 0.00 in
15:51 42.3 °F 25.0 °F 29.90 in WNW 7.0 mph 14.0 mph 50 % 0.00 in
15:56 42.3 °F 25.4 °F 29.90 in NW 8.5 mph 11.5 mph 51 % 0.00 in
15:58 42.3 °F 25.4 °F 29.90 in NW 5.7 mph 8.0 mph 51 % 0.00 in
16:03 42.2 °F 25.3 °F 29.90 in North 6.6 mph 13.8 mph 51 % 0.00 in
16:08 42.2 °F 26.3 °F 29.91 in NE 6.5 mph 18.4 mph 53 % 0.00 in
16:09 42.2 °F 26.3 °F 29.91 in NW 5.2 mph 12.0 mph 53 % 0.00 in
16:14 42.1 °F 25.7 °F 29.91 in North 7.6 mph 18.4 mph 52 % 0.00 in
16:16 42.0 °F 26.1 °F 29.92 in NW 4.9 mph 10.4 mph 53 % 0.00 in
16:21 41.9 °F 25.1 °F 29.92 in NNW 5.5 mph 13.8 mph 51 % 0.00 in
16:23 41.9 °F 25.5 °F 29.92 in WSW 5.8 mph 11.0 mph 52 % 0.00 in
16:26 41.8 °F 24.5 °F 29.92 in NNW 7.0 mph 12.7 mph 50 % 0.00 in
16:31 41.6 °F 24.8 °F 29.92 in NNW 7.7 mph 11.5 mph 51 % 0.00 in
16:33 41.6 °F 24.8 °F 29.92 in WNW 9.3 mph 15.0 mph 51 % 0.00 in
16:37 41.5 °F 24.7 °F 29.93 in WNW 4.9 mph 11.5 mph 51 % 0.00 in
16:41 41.4 °F 24.6 °F 29.92 in NNW 7.4 mph 17.3 mph 51 % 0.00 in
16:46 41.3 °F 25.0 °F 29.93 in WNW 3.4 mph 9.2 mph 52 % 0.00 in
16:50 41.2 °F 24.9 °F 29.94 in NNW 6.5 mph 9.0 mph 52 % 0.00 in
16:51 41.1 °F 24.8 °F 29.93 in West 7.7 mph 18.4 mph 52 % 0.00 in
16:57 41.0 °F 24.7 °F 29.94 in WNW 6.3 mph 9.2 mph 52 % 0.00 in
17:02 40.9 °F 24.1 °F 29.94 in WNW 7.7 mph 10.4 mph 51 % 0.00 in
17:03 40.9 °F 24.1 °F 29.94 in West 5.4 mph 13.8 mph 51 % 0.00 in
17:08 40.8 °F 25.0 °F 29.94 in West 5.7 mph 11.5 mph 53 % 0.00 in
17:12 40.7 °F 24.9 °F 29.94 in WNW 7.9 mph 11.5 mph 53 % 0.00 in
17:17 40.7 °F 25.3 °F 29.95 in NW 2.7 mph 9.2 mph 54 % 0.00 in
17:19 40.7 °F 25.3 °F 29.95 in WNW 4.1 mph 8.1 mph 54 % 0.00 in
17:20 40.6 °F 25.7 °F 29.95 in NNW 2.7 mph 5.8 mph 55 % 0.00 in
17:25 40.6 °F 25.2 °F 29.95 in NW 5.0 mph 12.0 mph 54 % 0.00 in
17:27 40.5 °F 24.7 °F 29.95 in NW 5.6 mph 11.5 mph 53 % 0.00 in
17:32 40.4 °F 24.6 °F 29.95 in NNW 4.8 mph 10.4 mph 53 % 0.00 in
17:36 40.4 °F 24.1 °F 29.96 in NW 4.8 mph 9.2 mph 52 % 0.00 in
17:39 40.3 °F 24.5 °F 29.95 in WNW 4.1 mph 8.1 mph 53 % 0.00 in
17:43 40.3 °F 24.5 °F 29.96 in NW 3.8 mph 6.9 mph 53 % 0.00 in
17:47 40.2 °F 24.9 °F 29.96 in NNW 5.5 mph 11.5 mph 54 % 0.00 in
17:52 40.2 °F 24.9 °F 29.97 in NNW 6.8 mph 11.5 mph 54 % 0.00 in
17:57 40.1 °F 24.8 °F 29.97 in West 4.3 mph 6.9 mph 54 % 0.00 in
18:02 40.1 °F 24.3 °F 29.97 in NW 5.7 mph 11.5 mph 53 % 0.00 in
18:07 40.0 °F 24.2 °F 29.97 in WNW 8.0 mph 13.8 mph 53 % 0.00 in
18:12 39.9 °F 24.1 °F 29.97 in North 3.8 mph 12.0 mph 53 % 0.00 in
18:13 39.9 °F 24.1 °F 29.97 in West 5.1 mph 11.5 mph 53 % 0.00 in
18:17 39.8 °F 24.5 °F 29.97 in West 6.4 mph 13.8 mph 54 % 0.00 in
18:20 39.7 °F 24.4 °F 29.97 in WNW 5.0 mph 15.0 mph 54 % 0.00 in
18:26 39.7 °F 24.0 °F 29.98 in NW 6.0 mph 15.0 mph 53 % 0.00 in
18:28 39.6 °F 24.3 °F 29.98 in WSW 5.1 mph 9.2 mph 54 % 0.00 in
18:33 39.5 °F 24.7 °F 29.98 in West 5.2 mph 10.4 mph 55 % 0.00 in
18:34 39.5 °F 25.1 °F 29.98 in NW 3.6 mph 9.2 mph 56 % 0.00 in
18:41 39.4 °F 24.6 °F 29.98 in WNW 5.7 mph 14.0 mph 55 % 0.00 in
18:48 39.2 °F 24.4 °F 29.99 in NW 8.4 mph 11.5 mph 55 % 0.00 in
18:49 39.1 °F 24.3 °F 29.99 in NNW 5.6 mph 10.0 mph 55 % 0.00 in
18:54 39.1 °F 24.3 °F 29.99 in NNW 3.6 mph 11.5 mph 55 % 0.00 in
18:59 39.0 °F 24.6 °F 29.99 in WNW 4.6 mph 8.1 mph 56 % 0.00 in
19:02 38.9 °F 24.5 °F 29.98 in NNW 3.0 mph 8.1 mph 56 % 0.00 in
19:07 38.9 °F 24.9 °F 29.99 in NW 5.3 mph 11.5 mph 57 % 0.00 in
19:10 38.8 °F 24.4 °F 29.99 in WNW 7.8 mph 15.0 mph 56 % 0.00 in
19:15 38.7 °F 24.8 °F 29.99 in NNW 7.2 mph 10.4 mph 57 % 0.00 in
19:20 38.7 °F 24.3 °F 30.00 in NW 2.6 mph 4.0 mph 56 % 0.00 in
19:25 38.6 °F 24.7 °F 30.00 in NW 2.6 mph 11.5 mph 57 % 0.00 in
19:26 38.5 °F 24.6 °F 30.00 in North 5.4 mph 12.7 mph 57 % 0.00 in
19:31 38.4 °F 24.9 °F 30.00 in NW 6.0 mph 15.0 mph 58 % 0.00 in
19:36 38.3 °F 24.0 °F 30.00 in NW 5.2 mph 16.1 mph 56 % 0.00 in
19:40 38.3 °F 24.8 °F 30.00 in NNW 5.4 mph 10.4 mph 58 % 0.00 in
19:41 38.3 °F 24.8 °F 30.00 in NNW 4.7 mph 10.4 mph 58 % 0.00 in
19:46 38.2 °F 23.9 °F 30.00 in WNW 9.3 mph 12.7 mph 56 % 0.00 in
19:49 38.2 °F 23.9 °F 30.00 in WNW 5.2 mph 13.8 mph 56 % 0.00 in
19:50 38.2 °F 23.9 °F 30.00 in NNW 6.4 mph 11.5 mph 56 % 0.00 in
19:55 38.1 °F 24.2 °F 30.00 in NNW 5.4 mph 10.4 mph 57 % 0.00 in
20:00 38.1 °F 24.2 °F 30.00 in WNW 6.0 mph 9.2 mph 57 % 0.00 in
20:05 38.0 °F 24.9 °F 30.00 in NW 4.2 mph 8.1 mph 59 % 0.00 in
20:08 38.0 °F 24.5 °F 30.00 in North 3.3 mph 11.5 mph 58 % 0.00 in
20:11 37.9 °F 24.4 °F 30.00 in NNW 5.3 mph 11.5 mph 58 % 0.00 in
20:14 37.8 °F 23.9 °F 30.00 in NW 2.3 mph 11.5 mph 57 % 0.00 in
20:20 37.8 °F 24.7 °F 30.00 in NNW 6.8 mph 9.0 mph 59 % 0.00 in
20:21 37.7 °F 24.7 °F 30.00 in NW 7.0 mph 14.0 mph 59 % 0.00 in
20:22 37.7 °F 23.8 °F 30.01 in NW 6.3 mph 11.5 mph 57 % 0.00 in
20:26 37.7 °F 23.8 °F 30.00 in NW 3.5 mph 11.5 mph 57 % 0.00 in
20:31 37.7 °F 24.2 °F 30.00 in NNW 2.9 mph 8.1 mph 58 % 0.00 in
20:32 37.7 °F 24.2 °F 30.00 in WNW 3.5 mph 11.0 mph 58 % 0.00 in
20:37 37.6 °F 24.6 °F 30.00 in NW 6.1 mph 10.4 mph 59 % 0.00 in
20:38 37.6 °F 24.6 °F 30.00 in West 4.3 mph 7.0 mph 59 % 0.00 in
20:44 37.6 °F 24.1 °F 30.00 in NW 7.1 mph 9.2 mph 58 % 0.00 in
20:50 37.5 °F 24.5 °F 30.01 in NNW 7.3 mph 15.0 mph 59 % 0.00 in
20:55 37.5 °F 24.1 °F 30.01 in NNW 4.6 mph 11.5 mph 58 % 0.00 in
20:56 37.5 °F 24.5 °F 30.01 in WNW 4.4 mph 12.0 mph 59 % 0.00 in
21:01 37.4 °F 24.0 °F 30.02 in WNW 3.4 mph 10.4 mph 58 % 0.00 in
21:06 37.4 °F 24.0 °F 30.02 in WNW 8.0 mph 14.0 mph 58 % 0.00 in
21:07 37.4 °F 24.0 °F 30.02 in NNW 2.9 mph 11.5 mph 58 % 0.00 in
21:12 37.3 °F 24.3 °F 30.01 in NW 6.4 mph 9.2 mph 59 % 0.00 in
21:17 37.3 °F 24.3 °F 30.01 in NNW 5.5 mph 15.0 mph 59 % 0.00 in
21:22 37.2 °F 24.2 °F 30.01 in WNW 4.7 mph 8.1 mph 59 % 0.00 in
21:23 37.2 °F 24.2 °F 30.01 in NNW 4.9 mph 6.9 mph 59 % 0.00 in
21:28 37.1 °F 24.1 °F 30.01 in WNW 4.6 mph 10.4 mph 59 % 0.00 in
21:31 37.1 °F 24.1 °F 30.02 in WNW 3.3 mph 4.6 mph 59 % 0.00 in
21:37 37.0 °F 24.4 °F 30.02 in NW 6.2 mph 6.9 mph 60 % 0.00 in
21:42 36.9 °F 24.3 °F 30.02 in NW 2.5 mph 5.0 mph 60 % 0.00 in
21:45 36.9 °F 24.7 °F 30.02 in WNW 5.0 mph 10.4 mph 61 % 0.00 in
21:48 36.8 °F 23.8 °F 30.02 in NNW 7.2 mph 12.7 mph 59 % 0.00 in
21:52 36.8 °F 23.4 °F 30.02 in NW 3.9 mph 5.8 mph 58 % 0.00 in
21:54 36.8 °F 23.0 °F 30.02 in NW 6.1 mph 11.5 mph 57 % 0.00 in
21:59 36.8 °F 23.8 °F 30.02 in NW 5.5 mph 13.8 mph 59 % 0.00 in
22:02 36.8 °F 23.4 °F 30.02 in NW 4.3 mph 15.0 mph 58 % 0.00 in
22:07 36.7 °F 22.9 °F 30.02 in NW 6.9 mph 13.8 mph 57 % 0.00 in
22:08 36.7 °F 22.9 °F 30.02 in NW 3.4 mph 9.2 mph 57 % 0.00 in
22:13 36.7 °F 22.9 °F 30.02 in NW 6.4 mph 11.5 mph 57 % 0.00 in
22:18 36.6 °F 23.2 °F 30.02 in North 4.9 mph 9.2 mph 58 % 0.00 in
22:19 36.6 °F 23.2 °F 30.02 in NW 3.6 mph 8.1 mph 58 % 0.00 in
22:21 36.6 °F 23.2 °F 30.02 in NNW 5.5 mph 8.1 mph 58 % 0.00 in
22:24 36.6 °F 23.2 °F 30.02 in NW 4.9 mph 8.1 mph 58 % 0.00 in
22:28 36.5 °F 23.1 °F 30.02 in NNW 3.8 mph 9.2 mph 58 % 0.00 in
22:33 36.4 °F 23.0 °F 30.02 in WNW 3.1 mph 9.2 mph 58 % 0.00 in
22:36 36.3 °F 22.9 °F 30.02 in NNW 3.0 mph 12.0 mph 58 % 0.00 in
22:41 36.2 °F 23.3 °F 30.02 in NNW 5.0 mph 9.0 mph 59 % 0.00 in
22:46 36.2 °F 23.2 °F 30.02 in NNW 8.0 mph 12.7 mph 59 % 0.00 in
22:48 36.2 °F 22.8 °F 30.02 in NNW 5.7 mph 9.2 mph 58 % 0.00 in
22:52 36.2 °F 23.2 °F 30.02 in North 3.6 mph 6.9 mph 59 % 0.00 in
22:57 36.1 °F 23.5 °F 30.02 in North 3.7 mph 11.0 mph 60 % 0.00 in
23:02 36.0 °F 22.6 °F 30.02 in NW 7.3 mph 10.4 mph 58 % 0.00 in
23:03 36.0 °F 22.6 °F 30.02 in NNW 4.7 mph 6.9 mph 58 % 0.00 in
23:08 35.9 °F 23.0 °F 30.02 in NNW 3.5 mph 6.9 mph 59 % 0.00 in
23:09 35.9 °F 23.0 °F 30.02 in NNW 4.5 mph 7.0 mph 59 % 0.00 in
23:14 35.9 °F 23.0 °F 30.03 in NNW 4.7 mph 10.4 mph 59 % 0.00 in
23:16 35.8 °F 22.9 °F 30.03 in NNW 2.9 mph 6.9 mph 59 % 0.00 in
23:21 35.8 °F 22.9 °F 30.03 in North 3.0 mph 6.9 mph 59 % 0.00 in
23:26 35.8 °F 23.3 °F 30.03 in NNW 2.7 mph 9.2 mph 60 % 0.00 in
23:29 35.8 °F 23.3 °F 30.03 in North 2.2 mph 4.0 mph 60 % 0.00 in
23:34 35.7 °F 22.8 °F 30.03 in West 4.7 mph 10.4 mph 59 % 0.00 in
23:36 35.7 °F 22.8 °F 30.03 in NW 5.0 mph 10.0 mph 59 % 0.00 in
23:40 35.6 °F 22.3 °F 30.03 in NNW 5.0 mph 6.0 mph 58 % 0.00 in
23:45 35.5 °F 22.2 °F 30.02 in NW 5.0 mph 9.0 mph 58 % 0.00 in
23:50 35.5 °F 23.0 °F 30.02 in NW 2.7 mph 3.5 mph 60 % 0.00 in
23:53 35.4 °F 22.5 °F 30.02 in NW 3.4 mph 11.5 mph 59 % 0.00 in
23:59 35.3 °F 22.0 °F 30.02 in NW 5.4 mph 10.4 mph 58 % 0.00 in
Crab Meadow Weather
Compliments of Weather Underground - 3.75 mb

Script developed by  Jim McMurry - jmcmurry@mwt.net Adapted for the template by  Wim van der Kuil - Leuven-Template.eu

Extremes: The most widespread U.S. cold wave was in February of 1899. It was so cold that the Mississippi River froze over its entire length, with ice as thick as two inches even in New Orleans.